Time;durP1;ratioP1;P1;durP2;ratioP2;P2;SDS_P1;SDS_P2;PMS_P1;PMS_P2;Temp;Humidity;BMP_temperature;BMP_pressure;BME280_temperature;BME280_humidity;BME280_pressure;Samples;Min_cycle;Max_cycle;Signal;HPM_P1;HPM_P2
2023/12/18 00:00:58;;;;;;;49.60;26.23;;;;;;;;;;6305429;22;20235;-76
2023/12/18 00:03:25;;;;;;;44.80;22.70;;;;;;;;;;6305740;22;20210;-77
2023/12/18 00:05:52;;;;;;;44.40;21.87;;;;;;;;;;6305065;22;20201;-77
2023/12/18 00:08:19;;;;;;;40.80;21.80;;;;;;;;;;6305434;22;20279;-77
2023/12/18 00:10:48;;;;;;;38.70;21.07;;;;;;;;;;6305253;22;20224;-75
2023/12/18 00:13:15;;;;;;;45.00;21.97;;;;;;;;;;6305395;22;20650;-78
2023/12/18 00:15:43;;;;;;;44.47;21.93;;;;;;;;;;6305147;22;20168;-77
2023/12/18 00:18:10;;;;;;;43.63;20.33;;;;;;;;;;6305626;22;20193;-77
2023/12/18 00:20:37;;;;;;;42.93;21.60;;;;;;;;;;6305242;22;20194;-77
2023/12/18 00:23:04;;;;;;;46.60;22.00;;;;;;;;;;6305433;22;20247;-77
2023/12/18 00:25:31;;;;;;;40.53;20.10;;;;;;;;;;6305439;22;20208;-76
2023/12/18 00:28:00;;;;;;;42.73;21.17;;;;;;;;;;6305087;22;20205;-77
2023/12/18 00:30:27;;;;;;;39.17;20.50;;;;;;;;;;6306019;22;20561;-77
2023/12/18 00:32:54;;;;;;;40.93;20.47;;;;;;;;;;6305213;22;20690;-78
2023/12/18 00:35:21;;;;;;;40.37;20.13;;;;;;;;;;6304967;22;20210;-77
2023/12/18 00:37:49;;;;;;;35.03;19.47;;;;;;;;;;6305453;22;20201;-77
2023/12/18 00:40:16;;;;;;;37.37;20.37;;;;;;;;;;6305197;22;20626;-77
2023/12/18 00:42:43;;;;;;;42.70;20.90;;;;;;;;;;6305360;22;20254;-76
2023/12/18 00:45:11;;;;;;;37.93;20.97;;;;;;;;;;6305746;22;20171;-77
2023/12/18 00:47:39;;;;;;;40.30;20.53;;;;;;;;;;6304962;22;20233;-77
2023/12/18 00:50:07;;;;;;;37.53;19.90;;;;;;;;;;6305644;22;20172;-77
2023/12/18 00:52:35;;;;;;;40.53;20.07;;;;;;;;;;6305254;22;20173;-77
2023/12/18 00:55:02;;;;;;;36.57;19.73;;;;;;;;;;6305548;22;20259;-77
2023/12/18 00:57:29;;;;;;;37.53;20.27;;;;;;;;;;6305016;22;20201;-77
2023/12/18 00:59:57;;;;;;;39.80;20.00;;;;;;;;;;6305130;22;20294;-76
2023/12/18 01:02:25;;;;;;;34.73;18.70;;;;;;;;;;6305342;22;20173;-77
2023/12/18 01:04:52;;;;;;;34.23;17.73;;;;;;;;;;6305143;22;20200;-77
2023/12/18 01:07:19;;;;;;;36.07;18.60;;;;;;;;;;6304874;22;20202;-77
2023/12/18 01:09:47;;;;;;;35.43;18.17;;;;;;;;;;6305258;22;20720;-77
2023/12/18 01:12:14;;;;;;;38.23;19.20;;;;;;;;;;6305074;22;20258;-77
2023/12/18 01:14:41;;;;;;;35.13;18.50;;;;;;;;;;6304846;22;20172;-76
2023/12/18 01:17:08;;;;;;;33.67;17.77;;;;;;;;;;6304691;22;20202;-77
2023/12/18 01:19:37;;;;;;;38.13;19.37;;;;;;;;;;6305798;22;20252;-77
2023/12/18 01:22:04;;;;;;;34.90;17.93;;;;;;;;;;6307321;22;20174;-77
2023/12/18 01:24:31;;;;;;;32.40;18.47;;;;;;;;;;6307166;22;20234;-75
2023/12/18 01:26:58;;;;;;;36.47;18.07;;;;;;;;;;6306712;22;20281;-78
2023/12/18 01:29:25;;;;;;;36.93;18.57;;;;;;;;;;6307088;22;20172;-76
2023/12/18 01:31:53;;;;;;;32.37;18.00;;;;;;;;;;6307168;22;20168;-77
2023/12/18 01:34:20;;;;;;;31.93;17.23;;;;;;;;;;6306973;22;20207;-77
2023/12/18 01:36:48;;;;;;;32.63;18.17;;;;;;;;;;6306886;22;20258;-77
2023/12/18 01:39:15;;;;;;;32.80;17.67;;;;;;;;;;6306577;22;20195;-77
2023/12/18 01:41:43;;;;;;;31.87;17.40;;;;;;;;;;6306793;22;20170;-77
2023/12/18 01:44:10;;;;;;;29.43;16.87;;;;;;;;;;6306849;22;20175;-77
2023/12/18 01:46:37;;;;;;;29.43;17.03;;;;;;;;;;6307186;22;20175;-77
2023/12/18 01:49:04;;;;;;;28.93;16.47;;;;;;;;;;6306915;22;20211;-78
2023/12/18 01:51:32;;;;;;;32.30;17.23;;;;;;;;;;6306915;22;20647;-77
2023/12/18 01:54:00;;;;;;;31.27;17.50;;;;;;;;;;6305188;22;20892;-77
2023/12/18 01:56:30;;;;;;;32.63;17.80;;;;;;;;;;6306916;22;20205;-77
2023/12/18 01:58:59;;;;;;;32.80;17.80;;;;;;;;;;6306620;22;20171;-77
2023/12/18 02:01:26;;;;;;;32.53;17.00;;;;;;;;;;6306465;22;20282;-77
2023/12/18 02:03:54;;;;;;;30.83;17.33;;;;;;;;;;6306501;22;20658;-77
2023/12/18 02:06:22;;;;;;;29.53;16.87;;;;;;;;;;6306522;22;20194;-77
2023/12/18 02:08:49;;;;;;;30.87;16.90;;;;;;;;;;6306282;22;20742;-77
2023/12/18 02:11:18;;;;;;;31.17;17.30;;;;;;;;;;6306722;22;20204;-77
2023/12/18 02:13:45;;;;;;;32.60;17.60;;;;;;;;;;6306888;22;20169;-76
2023/12/18 02:16:12;;;;;;;32.83;17.20;;;;;;;;;;6306647;22;20252;-77
2023/12/18 02:18:44;;;;;;;33.47;18.23;;;;;;;;;;6306650;22;20252;-77
2023/12/18 02:21:11;;;;;;;33.23;17.87;;;;;;;;;;6307300;22;20171;-78
2023/12/18 02:23:40;;;;;;;34.37;18.00;;;;;;;;;;6306539;22;20254;-77
2023/12/18 02:26:07;;;;;;;33.17;18.00;;;;;;;;;;6306288;22;20708;-77
2023/12/18 02:28:34;;;;;;;35.60;17.63;;;;;;;;;;6306461;22;20239;-77
2023/12/18 02:31:02;;;;;;;35.37;18.20;;;;;;;;;;6304507;22;20168;-77
2023/12/18 02:33:30;;;;;;;34.07;17.33;;;;;;;;;;6305551;22;20171;-77
2023/12/18 02:35:57;;;;;;;32.97;17.57;;;;;;;;;;6306887;22;20195;-78
2023/12/18 02:38:24;;;;;;;32.90;16.87;;;;;;;;;;6306330;22;20641;-78
2023/12/18 02:40:53;;;;;;;30.73;16.73;;;;;;;;;;6306577;22;20267;-77
2023/12/18 02:43:20;;;;;;;34.50;16.97;;;;;;;;;;6306416;22;20200;-77
2023/12/18 02:45:48;;;;;;;34.53;17.60;;;;;;;;;;6306152;22;20179;-77
2023/12/18 02:48:15;;;;;;;29.17;16.50;;;;;;;;;;6306126;22;20261;-77
2023/12/18 02:50:42;;;;;;;30.67;16.33;;;;;;;;;;6306724;22;20207;-77
2023/12/18 02:53:09;;;;;;;30.53;17.23;;;;;;;;;;6306111;22;20219;-77
2023/12/18 02:55:36;;;;;;;30.53;17.40;;;;;;;;;;6307094;22;20249;-76
2023/12/18 02:58:05;;;;;;;32.57;17.27;;;;;;;;;;6306165;22;20208;-77
2023/12/18 03:00:32;;;;;;;29.80;17.37;;;;;;;;;;6305928;22;20604;-78
2023/12/18 03:03:00;;;;;;;33.83;17.03;;;;;;;;;;6306099;22;20172;-77
2023/12/18 03:05:27;;;;;;;30.63;16.73;;;;;;;;;;6306788;22;20253;-78
2023/12/18 03:07:54;;;;;;;31.73;16.53;;;;;;;;;;6306506;22;20286;-76
2023/12/18 03:10:22;;;;;;;28.43;16.43;;;;;;;;;;6306267;22;20197;-77
2023/12/18 03:12:49;;;;;;;29.33;16.23;;;;;;;;;;6305875;22;20175;-77
2023/12/18 03:15:18;;;;;;;29.60;16.10;;;;;;;;;;6305735;22;20264;-76
2023/12/18 03:17:45;;;;;;;27.77;16.00;;;;;;;;;;6306000;22;20180;-77
2023/12/18 03:20:12;;;;;;;29.23;16.13;;;;;;;;;;6306090;22;20200;-78
2023/12/18 03:22:40;;;;;;;29.30;16.07;;;;;;;;;;6306181;22;20549;-77
2023/12/18 03:25:07;;;;;;;31.50;16.00;;;;;;;;;;6306699;22;20551;-76
2023/12/18 03:27:34;;;;;;;28.77;15.73;;;;;;;;;;6305935;22;20242;-78
2023/12/18 03:30:01;;;;;;;25.60;15.53;;;;;;;;;;6305516;22;20311;-77
2023/12/18 03:32:30;;;;;;;28.27;16.53;;;;;;;;;;6306072;22;20534;-76
2023/12/18 03:34:58;;;;;;;27.27;15.13;;;;;;;;;;6305679;22;20559;-77
2023/12/18 03:37:25;;;;;;;30.97;15.70;;;;;;;;;;6306584;22;20551;-76
2023/12/18 03:39:52;;;;;;;29.97;16.23;;;;;;;;;;6305210;22;20209;-77
2023/12/18 03:42:19;;;;;;;27.57;15.40;;;;;;;;;;6305269;22;20194;-77
2023/12/18 03:44:46;;;;;;;28.87;15.67;;;;;;;;;;6305574;22;20283;-76
2023/12/18 03:47:13;;;;;;;24.63;15.03;;;;;;;;;;6305114;22;20239;-77
2023/12/18 03:49:42;;;;;;;25.80;14.53;;;;;;;;;;6305621;22;20248;-77
2023/12/18 03:52:09;;;;;;;25.50;15.70;;;;;;;;;;6306184;22;20192;-77
2023/12/18 03:54:36;;;;;;;24.50;14.80;;;;;;;;;;6305559;22;20199;-77
2023/12/18 03:57:04;;;;;;;23.17;15.00;;;;;;;;;;6305381;22;20244;-77
2023/12/18 03:59:31;;;;;;;24.63;15.17;;;;;;;;;;6305172;22;20204;-78
2023/12/18 04:01:58;;;;;;;27.20;15.63;;;;;;;;;;6305471;22;20193;-77
2023/12/18 04:04:25;;;;;;;27.23;15.67;;;;;;;;;;6305825;22;20174;-77
2023/12/18 04:06:54;;;;;;;24.80;14.70;;;;;;;;;;6305727;22;20177;-77
2023/12/18 04:09:21;;;;;;;26.13;15.60;;;;;;;;;;6305559;22;20213;-78
2023/12/18 04:11:50;;;;;;;26.57;15.30;;;;;;;;;;6305213;22;20272;-77
2023/12/18 04:14:17;;;;;;;26.73;15.70;;;;;;;;;;6305645;22;20195;-77
2023/12/18 04:16:44;;;;;;;25.40;14.87;;;;;;;;;;6305675;22;20189;-77
2023/12/18 04:19:11;;;;;;;28.97;15.00;;;;;;;;;;6305790;22;20199;-76
2023/12/18 04:21:38;;;;;;;25.57;14.87;;;;;;;;;;6305742;22;20219;-77
2023/12/18 04:24:07;;;;;;;26.17;15.23;;;;;;;;;;6305311;22;20687;-78
2023/12/18 04:26:34;;;;;;;23.50;13.87;;;;;;;;;;6305296;22;20203;-78
2023/12/18 04:29:02;;;;;;;26.40;14.67;;;;;;;;;;6305247;22;20233;-77
2023/12/18 04:31:29;;;;;;;23.90;14.13;;;;;;;;;;6305604;22;20253;-77
2023/12/18 04:33:56;;;;;;;23.40;14.13;;;;;;;;;;6305291;22;20200;-78
2023/12/18 04:36:23;;;;;;;24.17;13.23;;;;;;;;;;6305213;22;20258;-78
2023/12/18 04:38:51;;;;;;;21.93;13.87;;;;;;;;;;6305550;22;20255;-77
2023/12/18 04:41:20;;;;;;;23.90;14.27;;;;;;;;;;6305219;22;20244;-77
2023/12/18 04:43:47;;;;;;;24.37;15.23;;;;;;;;;;6305246;22;20196;-77
2023/12/18 04:46:14;;;;;;;25.33;15.57;;;;;;;;;;6305009;22;20252;-77
2023/12/18 04:48:42;;;;;;;25.90;15.50;;;;;;;;;;6305106;22;20208;-77
2023/12/18 04:51:10;;;;;;;29.23;16.80;;;;;;;;;;6305178;22;20511;-77
2023/12/18 04:53:37;;;;;;;25.90;16.23;;;;;;;;;;6305006;22;20173;-76
2023/12/18 04:56:05;;;;;;;24.73;15.17;;;;;;;;;;6304757;22;20200;-77
2023/12/18 04:58:34;;;;;;;30.63;15.90;;;;;;;;;;6304375;22;20196;-76
2023/12/18 05:01:01;;;;;;;27.97;16.37;;;;;;;;;;6304672;22;20262;-77
2023/12/18 05:03:29;;;;;;;26.43;15.73;;;;;;;;;;6305209;22;20173;-78
2023/12/18 05:05:56;;;;;;;27.70;14.87;;;;;;;;;;6304778;22;20661;-76
2023/12/18 05:08:23;;;;;;;27.23;15.77;;;;;;;;;;6305082;22;20236;-77
2023/12/18 05:10:50;;;;;;;24.90;14.37;;;;;;;;;;6305807;22;20196;-77
2023/12/18 05:13:17;;;;;;;25.07;13.80;;;;;;;;;;6305056;22;20197;-77
2023/12/18 05:15:46;;;;;;;21.63;13.43;;;;;;;;;;6305408;22;20200;-77
2023/12/18 05:18:13;;;;;;;19.97;13.60;;;;;;;;;;6305436;22;20568;-77
2023/12/18 05:20:41;;;;;;;23.87;13.90;;;;;;;;;;6304999;22;20722;-78
2023/12/18 05:23:08;;;;;;;26.60;13.50;;;;;;;;;;6304501;22;20543;-76
2023/12/18 05:25:35;;;;;;;21.53;12.70;;;;;;;;;;6305870;22;20506;-77
2023/12/18 05:28:02;;;;;;;22.23;13.93;;;;;;;;;;6304842;22;20291;-77
2023/12/18 05:30:29;;;;;;;21.17;13.47;;;;;;;;;;6305086;22;20203;-78
2023/12/18 05:32:58;;;;;;;19.83;12.73;;;;;;;;;;6305360;22;20208;-77
2023/12/18 05:35:25;;;;;;;21.27;13.30;;;;;;;;;;6304855;22;20666;-77
2023/12/18 05:37:52;;;;;;;23.60;13.10;;;;;;;;;;6304795;22;20256;-76
2023/12/18 05:40:19;;;;;;;20.73;13.57;;;;;;;;;;6304459;22;20197;-76
2023/12/18 05:42:46;;;;;;;19.73;12.87;;;;;;;;;;6304707;22;20205;-77
2023/12/18 05:45:13;;;;;;;20.20;13.23;;;;;;;;;;6304762;22;20257;-77
2023/12/18 05:47:41;;;;;;;22.43;13.47;;;;;;;;;;6304965;22;20252;-77
2023/12/18 05:50:10;;;;;;;21.07;13.87;;;;;;;;;;6305249;22;20201;-77
2023/12/18 05:52:37;;;;;;;22.00;12.53;;;;;;;;;;6304373;22;20205;-76
2023/12/18 05:55:04;;;;;;;20.80;12.93;;;;;;;;;;6305014;22;20197;-77
2023/12/18 05:57:31;;;;;;;20.67;13.47;;;;;;;;;;6305289;22;20689;-76
2023/12/18 05:59:59;;;;;;;21.77;14.10;;;;;;;;;;6305274;22;20204;-77
2023/12/18 06:02:26;;;;;;;22.70;13.73;;;;;;;;;;6304688;22;20248;-77
2023/12/18 06:04:53;;;;;;;19.50;12.43;;;;;;;;;;6304894;22;20169;-76
2023/12/18 06:07:21;;;;;;;22.67;13.97;;;;;;;;;;6305768;22;20223;-77
2023/12/18 06:09:49;;;;;;;22.50;13.30;;;;;;;;;;6307053;22;20233;-77
2023/12/18 06:12:16;;;;;;;19.90;12.67;;;;;;;;;;6306795;22;20177;-77
2023/12/18 06:14:43;;;;;;;19.27;13.03;;;;;;;;;;6306939;22;20197;-77
2023/12/18 06:17:10;;;;;;;19.77;13.30;;;;;;;;;;6306820;22;20253;-77
2023/12/18 06:19:37;;;;;;;22.37;12.90;;;;;;;;;;6306928;22;20249;-77
2023/12/18 06:22:04;;;;;;;22.20;12.53;;;;;;;;;;6306449;22;20553;-76
2023/12/18 06:24:33;;;;;;;20.07;12.10;;;;;;;;;;6306226;22;20211;-77
2023/12/18 06:27:00;;;;;;;21.77;14.17;;;;;;;;;;6306719;22;20197;-77
2023/12/18 06:29:27;;;;;;;21.17;12.63;;;;;;;;;;6307319;22;20284;-77
2023/12/18 06:31:55;;;;;;;22.10;12.73;;;;;;;;;;6306449;22;20170;-77
2023/12/18 06:34:22;;;;;;;20.43;12.03;;;;;;;;;;6306491;22;20215;-77
2023/12/18 06:36:49;;;;;;;18.27;12.37;;;;;;;;;;6305780;22;20172;-77
2023/12/18 06:39:16;;;;;;;23.37;13.20;;;;;;;;;;6306544;22;20208;-77
2023/12/18 06:41:45;;;;;;;24.63;13.13;;;;;;;;;;6306511;22;20695;-76
2023/12/18 06:44:12;;;;;;;20.10;12.97;;;;;;;;;;6305208;22;20560;-76
2023/12/18 06:46:39;;;;;;;18.87;12.80;;;;;;;;;;6305421;22;20268;-77
2023/12/18 06:49:06;;;;;;;20.40;13.10;;;;;;;;;;6305111;22;20280;-77
2023/12/18 06:51:33;;;;;;;19.80;12.80;;;;;;;;;;6305827;22;20198;-77
2023/12/18 06:54:01;;;;;;;19.27;12.50;;;;;;;;;;6306332;22;20201;-76
2023/12/18 06:56:28;;;;;;;18.33;12.33;;;;;;;;;;6306295;22;20639;-77
2023/12/18 06:58:56;;;;;;;22.13;12.93;;;;;;;;;;6306542;22;20201;-77
2023/12/18 07:01:23;;;;;;;19.10;11.83;;;;;;;;;;6279506;22;20542;-77
2023/12/18 07:03:51;;;;;;;21.63;12.47;;;;;;;;;;6297428;22;20786;-78
2023/12/18 07:06:18;;;;;;;18.13;12.50;;;;;;;;;;6298118;22;20205;-78
2023/12/18 07:08:45;;;;;;;22.00;13.37;;;;;;;;;;6293632;22;20295;-78
2023/12/18 07:11:12;;;;;;;19.60;12.90;;;;;;;;;;6294535;22;20245;-78
2023/12/18 07:13:40;;;;;;;20.83;12.33;;;;;;;;;;6299338;22;20231;-78
2023/12/18 07:16:09;;;;;;;20.27;12.97;;;;;;;;;;6305039;22;20197;-79
2023/12/18 07:18:36;;;;;;;21.20;12.77;;;;;;;;;;6305265;22;20196;-78
2023/12/18 07:21:03;;;;;;;20.33;12.50;;;;;;;;;;6304952;22;20170;-78
2023/12/18 07:23:30;;;;;;;21.20;12.87;;;;;;;;;;6305162;22;20652;-77
2023/12/18 07:25:57;;;;;;;20.40;13.00;;;;;;;;;;6305960;22;20703;-78
2023/12/18 07:28:24;;;;;;;20.13;13.57;;;;;;;;;;6305887;22;20190;-78
2023/12/18 07:30:52;;;;;;;22.37;13.93;;;;;;;;;;6305340;22;20170;-78
2023/12/18 07:33:20;;;;;;;22.03;13.57;;;;;;;;;;6304691;22;20589;-78
2023/12/18 07:35:47;;;;;;;21.90;12.97;;;;;;;;;;6305294;22;20257;-77
2023/12/18 07:38:14;;;;;;;21.60;13.10;;;;;;;;;;6305568;22;20192;-78
2023/12/18 07:40:42;;;;;;;20.60;12.90;;;;;;;;;;6305619;22;20174;-76
2023/12/18 07:43:09;;;;;;;21.57;13.40;;;;;;;;;;6305824;22;20555;-77
2023/12/18 07:45:36;;;;;;;22.63;13.50;;;;;;;;;;6305068;22;20257;-77
2023/12/18 07:48:03;;;;;;;21.63;12.93;;;;;;;;;;6304766;22;20174;-76
2023/12/18 07:50:32;;;;;;;22.77;13.60;;;;;;;;;;6305843;22;20284;-77
2023/12/18 07:52:59;;;;;;;26.27;13.57;;;;;;;;;;6305084;22;20204;-77
2023/12/18 07:55:26;;;;;;;22.93;14.03;;;;;;;;;;6305044;22;20216;-77
2023/12/18 07:57:53;;;;;;;19.67;12.73;;;;;;;;;;6305130;22;20197;-77
2023/12/18 08:00:20;;;;;;;22.13;13.37;;;;;;;;;;6304498;22;20284;-77
2023/12/18 08:02:48;;;;;;;20.33;13.73;;;;;;;;;;6304603;22;20201;-77
2023/12/18 08:05:15;;;;;;;21.50;14.30;;;;;;;;;;6303684;22;20524;-78
2023/12/18 08:07:44;;;;;;;23.20;14.50;;;;;;;;;;6304780;22;20727;-78
2023/12/18 08:10:11;;;;;;;22.43;13.70;;;;;;;;;;6305238;22;20247;-77
2023/12/18 08:12:38;;;;;;;22.60;13.37;;;;;;;;;;6305141;22;20170;-77
2023/12/18 08:15:06;;;;;;;21.57;13.10;;;;;;;;;;6304180;22;20196;-77
2023/12/18 08:17:38;;;;;;;28.13;13.87;;;;;;;;;;6303684;22;20209;-78
2023/12/18 08:20:07;;;;;;;25.27;14.27;;;;;;;;;;6305024;22;20169;-77
2023/12/18 08:22:34;;;;;;;23.03;14.57;;;;;;;;;;6304648;22;20542;-78
2023/12/18 08:25:03;;;;;;;24.30;14.23;;;;;;;;;;6304797;22;20166;-77
2023/12/18 08:27:33;;;;;;;22.53;13.57;;;;;;;;;;6304593;22;20170;-77
2023/12/18 08:30:00;;;;;;;22.77;13.73;;;;;;;;;;6304340;22;20202;-77
2023/12/18 08:32:27;;;;;;;21.27;13.87;;;;;;;;;;6304825;22;20205;-78
2023/12/18 08:34:55;;;;;;;21.30;13.43;;;;;;;;;;6304257;22;20181;-78
2023/12/18 08:37:22;;;;;;;23.93;14.47;;;;;;;;;;6304264;22;20252;-78
2023/12/18 08:39:49;;;;;;;20.83;13.53;;;;;;;;;;6305123;22;20254;-78
2023/12/18 08:42:17;;;;;;;23.63;14.47;;;;;;;;;;6304155;22;20252;-78
2023/12/18 08:44:44;;;;;;;26.37;14.60;;;;;;;;;;6304443;22;20546;-78
2023/12/18 08:47:12;;;;;;;23.20;14.70;;;;;;;;;;6304003;22;20198;-78
2023/12/18 08:49:39;;;;;;;21.93;14.33;;;;;;;;;;6305424;22;20225;-78
2023/12/18 08:52:08;;;;;;;21.60;13.93;;;;;;;;;;6304847;22;20284;-77
2023/12/18 08:54:35;;;;;;;22.70;14.17;;;;;;;;;;6304814;22;20194;-78
2023/12/18 08:57:02;;;;;;;25.10;13.87;;;;;;;;;;6304560;22;20201;-78
2023/12/18 08:59:30;;;;;;;22.43;14.00;;;;;;;;;;6304309;22;20257;-77
2023/12/18 09:01:58;;;;;;;22.87;14.47;;;;;;;;;;6304241;22;20610;-78
2023/12/18 09:04:25;;;;;;;29.70;16.57;;;;;;;;;;6304350;22;20169;-78
2023/12/18 09:06:52;;;;;;;32.27;18.10;;;;;;;;;;6304167;22;20177;-78
2023/12/18 09:09:20;;;;;;;28.40;17.63;;;;;;;;;;6303717;22;20280;-77
2023/12/18 09:11:47;;;;;;;27.73;18.20;;;;;;;;;;6304747;22;20198;-77
2023/12/18 09:14:14;;;;;;;31.43;19.00;;;;;;;;;;6304000;22;20198;-77
2023/12/18 09:16:43;;;;;;;28.87;18.10;;;;;;;;;;6304200;22;20253;-78
2023/12/18 09:19:10;;;;;;;29.73;17.13;;;;;;;;;;6303655;22;20599;-78
2023/12/18 09:21:37;;;;;;;28.27;17.37;;;;;;;;;;6304226;22;20244;-78
2023/12/18 09:24:05;;;;;;;28.00;17.00;;;;;;;;;;6304404;22;20197;-78
2023/12/18 09:26:32;;;;;;;28.90;17.50;;;;;;;;;;6304720;22;20197;-78
2023/12/18 09:28:59;;;;;;;27.30;16.57;;;;;;;;;;6304586;22;20204;-78
2023/12/18 09:31:26;;;;;;;21.60;14.57;;;;;;;;;;6305043;22;20170;-78
2023/12/18 09:33:55;;;;;;;25.10;14.93;;;;;;;;;;6304246;22;20202;-78
2023/12/18 09:36:22;;;;;;;23.20;14.90;;;;;;;;;;6304326;22;20253;-78
2023/12/18 09:38:49;;;;;;;21.07;14.00;;;;;;;;;;6304658;22;20883;-78
2023/12/18 09:41:22;;;;;;;25.50;14.57;;;;;;;;;;6304426;22;20174;-78
2023/12/18 09:43:50;;;;;;;27.20;14.33;;;;;;;;;;6306125;22;20166;-76
2023/12/18 09:46:18;;;;;;;24.60;14.50;;;;;;;;;;6305780;22;20655;-78
2023/12/18 09:48:45;;;;;;;20.50;13.63;;;;;;;;;;6305901;22;20170;-78
2023/12/18 09:51:17;;;;;;;21.97;14.10;;;;;;;;;;6305026;22;20738;-78
2023/12/18 09:53:44;;;;;;;22.23;13.93;;;;;;;;;;6306222;22;20173;-78
2023/12/18 09:56:12;;;;;;;24.27;15.23;;;;;;;;;;6306648;22;20166;-77
2023/12/18 09:58:40;;;;;;;21.90;14.30;;;;;;;;;;6306254;22;20574;-78
2023/12/18 10:01:08;;;;;;;23.63;14.53;;;;;;;;;;6305695;22;20224;-78
2023/12/18 10:03:35;;;;;;;26.03;14.70;;;;;;;;;;6304576;22;20620;-78
2023/12/18 10:06:02;;;;;;;22.53;14.57;;;;;;;;;;6305102;22;20257;-77
2023/12/18 10:08:31;;;;;;;29.07;16.90;;;;;;;;;;6306008;22;20193;-77
2023/12/18 10:10:58;;;;;;;27.27;17.63;;;;;;;;;;6305742;22;20541;-77
2023/12/18 10:13:26;;;;;;;28.37;18.03;;;;;;;;;;6305321;22;20249;-77
2023/12/18 10:15:54;;;;;;;30.67;20.00;;;;;;;;;;6306064;22;20227;-78
2023/12/18 10:18:23;;;;;;;33.33;20.93;;;;;;;;;;6305977;22;20173;-78
2023/12/18 10:20:51;;;;;;;32.63;21.67;;;;;;;;;;6306655;22;20253;-78
2023/12/18 10:23:18;;;;;;;34.70;20.90;;;;;;;;;;6305885;22;20177;-78
2023/12/18 10:25:47;;;;;;;29.63;19.00;;;;;;;;;;6305740;22;20169;-77
2023/12/18 10:28:14;;;;;;;34.13;20.23;;;;;;;;;;6305837;22;20210;-78
2023/12/18 10:30:41;;;;;;;29.30;17.70;;;;;;;;;;6306464;22;20297;-77
2023/12/18 10:33:09;;;;;;;30.77;19.33;;;;;;;;;;6305745;22;20215;-78
2023/12/18 10:35:37;;;;;;;27.87;16.67;;;;;;;;;;6305819;22;20169;-78
2023/12/18 10:38:04;;;;;;;26.97;17.03;;;;;;;;;;6305776;22;20220;-78
2023/12/18 10:40:31;;;;;;;25.17;15.77;;;;;;;;;;6305938;22;20169;-77
2023/12/18 10:43:11;;;;;;;25.23;14.87;;;;;;;;;;6306076;22;20201;-78
2023/12/18 10:45:38;;;;;;;23.13;15.23;;;;;;;;;;6306232;22;20197;-78
2023/12/18 10:48:07;;;;;;;25.00;15.00;;;;;;;;;;6305420;22;20174;-78
2023/12/18 10:50:36;;;;;;;22.67;14.57;;;;;;;;;;6305238;22;20745;-78
2023/12/18 10:53:05;;;;;;;25.07;14.13;;;;;;;;;;6305196;22;20194;-77
2023/12/18 10:55:32;;;;;;;21.47;13.77;;;;;;;;;;6305516;22;20172;-78
2023/12/18 10:58:00;;;;;;;24.37;15.53;;;;;;;;;;6305643;22;20214;-78
2023/12/18 11:00:29;;;;;;;23.47;13.40;;;;;;;;;;6305808;22;20229;-78
2023/12/18 11:02:57;;;;;;;26.03;15.70;;;;;;;;;;6305651;22;20196;-78
2023/12/18 11:05:25;;;;;;;24.23;14.43;;;;;;;;;;6305911;22;20170;-78
2023/12/18 11:07:53;;;;;;;24.43;14.07;;;;;;;;;;6304606;22;20190;-77
2023/12/18 11:10:20;;;;;;;23.20;13.83;;;;;;;;;;6305207;22;20729;-77
2023/12/18 11:12:47;;;;;;;24.87;14.60;;;;;;;;;;6306543;22;20198;-78
2023/12/18 11:15:21;;;;;;;22.27;14.20;;;;;;;;;;6308324;22;20174;-78
2023/12/18 11:17:56;;;;;;;23.93;13.77;;;;;;;;;;6306121;22;20614;-77
2023/12/18 11:20:25;;;;;;;25.33;13.93;;;;;;;;;;6306117;22;20177;-78
2023/12/18 11:22:54;;;;;;;20.33;12.87;;;;;;;;;;6305917;22;20170;-77
2023/12/18 11:25:21;;;;;;;24.63;13.20;;;;;;;;;;6306000;22;20227;-78
2023/12/18 11:27:52;;;;;;;22.30;13.90;;;;;;;;;;6305004;22;20166;-77
2023/12/18 11:30:26;;;;;;;22.00;13.10;;;;;;;;;;6301319;22;20208;-79
2023/12/18 11:32:54;;;;;;;18.87;12.63;;;;;;;;;;6301965;22;20169;-78
2023/12/18 11:35:27;;;;;;;21.93;12.33;;;;;;;;;;6301208;22;20261;-77
2023/12/18 11:37:58;;;;;;;20.37;13.33;;;;;;;;;;6302274;22;20176;-77
2023/12/18 11:40:36;;;;;;;23.60;13.53;;;;;;;;;;6301359;22;20252;-77
2023/12/18 11:43:04;;;;;;;21.10;12.73;;;;;;;;;;6301089;22;20180;-76
2023/12/18 11:45:31;;;;;;;18.60;12.03;;;;;;;;;;6302883;22;20221;-77
2023/12/18 11:48:00;;;;;;;21.23;13.00;;;;;;;;;;6301620;22;20728;-77
2023/12/18 11:50:28;;;;;;;21.77;12.53;;;;;;;;;;6301730;22;20682;-76
2023/12/18 11:52:55;;;;;;;20.50;12.30;;;;;;;;;;6301676;22;20249;-75
2023/12/18 11:55:41;;;;;;;20.47;12.93;;;;;;;;;;6301491;22;20199;-76
2023/12/18 11:58:08;;;;;;;22.83;12.83;;;;;;;;;;6301929;22;20217;-76
2023/12/18 12:00:36;;;;;;;24.47;13.73;;;;;;;;;;6299705;22;20225;-77
2023/12/18 12:03:05;;;;;;;18.83;12.40;;;;;;;;;;6301580;22;20196;-78
2023/12/18 12:05:33;;;;;;;20.33;11.97;;;;;;;;;;6304824;22;20204;-77
2023/12/18 12:08:01;;;;;;;19.90;12.10;;;;;;;;;;6305693;22;20201;-77
2023/12/18 12:10:28;;;;;;;19.27;12.53;;;;;;;;;;6304983;22;20201;-79
2023/12/18 12:12:56;;;;;;;21.23;12.50;;;;;;;;;;6289002;22;20682;-78
2023/12/18 12:15:24;;;;;;;22.93;13.67;;;;;;;;;;6289505;22;20176;-78
2023/12/18 12:17:52;;;;;;;19.93;12.47;;;;;;;;;;6300280;22;20178;-77
2023/12/18 12:20:20;;;;;;;18.90;12.23;;;;;;;;;;6305728;22;20198;-78
2023/12/18 12:22:50;;;;;;;22.40;11.97;;;;;;;;;;6305545;22;20166;-79
2023/12/18 12:25:17;;;;;;;19.17;12.07;;;;;;;;;;6304865;22;20170;-79
2023/12/18 12:27:44;;;;;;;22.17;13.33;;;;;;;;;;6304832;22;20212;-79
2023/12/18 12:30:13;;;;;;;21.43;13.90;;;;;;;;;;6305056;22;20240;-78
2023/12/18 12:32:40;;;;;;;23.17;14.00;;;;;;;;;;6304507;22;20233;-79
2023/12/18 12:35:08;;;;;;;21.17;12.87;;;;;;;;;;6305105;22;20173;-78
2023/12/18 12:37:37;;;;;;;22.37;13.87;;;;;;;;;;6305146;22;20249;-78
2023/12/18 12:40:05;;;;;;;21.70;13.10;;;;;;;;;;6304176;22;20177;-78
2023/12/18 12:42:33;;;;;;;23.00;14.13;;;;;;;;;;6303424;22;20197;-78
2023/12/18 12:45:00;;;;;;;25.50;14.57;;;;;;;;;;6302455;22;20211;-78
2023/12/18 12:47:27;;;;;;;22.93;14.63;;;;;;;;;;6303920;22;20170;-78
2023/12/18 12:49:54;;;;;;;19.50;12.50;;;;;;;;;;6303320;22;20176;-79
2023/12/18 12:52:22;;;;;;;20.50;13.57;;;;;;;;;;6304897;22;20197;-78
2023/12/18 12:54:50;;;;;;;20.30;13.00;;;;;;;;;;6303479;22;20205;-78
2023/12/18 12:57:18;;;;;;;22.07;13.20;;;;;;;;;;6304124;22;20252;-78
2023/12/18 12:59:51;;;;;;;20.30;13.30;;;;;;;;;;6303921;22;20690;-78
2023/12/18 13:02:19;;;;;;;19.53;11.43;;;;;;;;;;6304131;22;20711;-78
2023/12/18 13:04:47;;;;;;;18.13;12.43;;;;;;;;;;6304807;22;20274;-78
2023/12/18 13:07:15;;;;;;;21.07;13.50;;;;;;;;;;6303431;22;20182;-78
2023/12/18 13:09:42;;;;;;;19.57;12.47;;;;;;;;;;6304409;22;20170;-78
2023/12/18 13:12:14;;;;;;;20.93;12.93;;;;;;;;;;6304194;22;20229;-78
2023/12/18 13:14:41;;;;;;;23.93;13.10;;;;;;;;;;6304543;22;20177;-78
2023/12/18 13:17:08;;;;;;;24.03;14.70;;;;;;;;;;6304023;22;20197;-79
2023/12/18 13:19:36;;;;;;;22.47;13.63;;;;;;;;;;6304364;22;20170;-78
2023/12/18 13:22:04;;;;;;;22.97;13.33;;;;;;;;;;6303954;22;20173;-79
2023/12/18 13:24:32;;;;;;;21.77;13.60;;;;;;;;;;6304301;22;20165;-78
2023/12/18 13:26:59;;;;;;;19.70;12.77;;;;;;;;;;6304451;22;20194;-78
2023/12/18 13:29:32;;;;;;;21.40;13.43;;;;;;;;;;6304231;22;20197;-78
2023/12/18 13:32:00;;;;;;;20.63;12.87;;;;;;;;;;6304792;22;20212;-78
2023/12/18 13:34:27;;;;;;;21.77;13.77;;;;;;;;;;6304580;22;20215;-78
2023/12/18 13:36:55;;;;;;;18.73;12.70;;;;;;;;;;6304394;22;20172;-78
2023/12/18 13:39:23;;;;;;;21.13;13.70;;;;;;;;;;6304273;22;20733;-78
2023/12/18 13:41:54;;;;;;;20.43;12.30;;;;;;;;;;6303293;22;20233;-78
2023/12/18 13:44:22;;;;;;;21.33;12.50;;;;;;;;;;6304447;22;20165;-78
2023/12/18 13:46:51;;;;;;;22.07;12.93;;;;;;;;;;6303657;22;20170;-78
2023/12/18 13:49:18;;;;;;;18.60;12.30;;;;;;;;;;6304659;22;20253;-78
2023/12/18 13:51:45;;;;;;;19.90;12.63;;;;;;;;;;6302483;22;20577;-79
2023/12/18 13:54:12;;;;;;;20.20;12.83;;;;;;;;;;6304449;22;20213;-77
2023/12/18 13:56:40;;;;;;;21.13;13.53;;;;;;;;;;6304219;22;20193;-78
2023/12/18 13:59:07;;;;;;;18.97;12.47;;;;;;;;;;6304187;22;20170;-78
2023/12/18 14:01:35;;;;;;;21.20;12.90;;;;;;;;;;6303966;22;20225;-77
2023/12/18 14:04:03;;;;;;;21.97;12.97;;;;;;;;;;6304567;22;20178;-78
2023/12/18 14:06:31;;;;;;;22.17;13.63;;;;;;;;;;6303840;22;20173;-77
2023/12/18 14:08:58;;;;;;;22.00;13.53;;;;;;;;;;6301274;22;20252;-78
2023/12/18 14:11:26;;;;;;;22.97;13.73;;;;;;;;;;6303778;22;20247;-78
2023/12/18 14:13:54;;;;;;;22.53;13.07;;;;;;;;;;6302844;22;20174;-78
2023/12/18 14:16:21;;;;;;;20.60;12.93;;;;;;;;;;6303209;22;20165;-78
2023/12/18 14:18:53;;;;;;;22.77;13.37;;;;;;;;;;6303307;22;20247;-79